Time;durP1;ratioP1;P1;durP2;ratioP2;P2;SDS_P1;SDS_P2;PMS_P1;PMS_P2;Temp;Humidity;BMP_temperature;BMP_pressure;BME280_temperature;BME280_humidity;BME280_pressure;Samples;Min_cycle;Max_cycle;Signal;HPM_P1;HPM_P2
2022/09/05 00:00:08;;;;;;;6.93;6.32;;;17.20;99.90;;;-141.84;61.40;20761.03;5052246;28;20209;-63
2022/09/05 00:02:52;;;;;;;7.40;6.65;;;17.20;99.90;;;-141.84;61.58;20805.75;5051985;28;20225;-62
2022/09/05 00:05:49;;;;;;;6.55;5.95;;;17.10;99.90;;;-141.84;61.57;20781.38;5051788;28;20255;-62
2022/09/05 00:08:55;;;;;;;6.95;6.35;;;17.10;99.90;;;-141.84;61.35;20801.69;5051768;28;20235;-62
2022/09/05 00:11:36;;;;;;;7.20;6.60;;;17.10;99.90;;;-141.84;61.25;20805.75;5051660;28;20708;-61
2022/09/05 00:14:41;;;;;;;7.43;6.72;;;17.10;99.90;;;-141.84;61.60;20820.00;5051790;28;20259;-62
2022/09/05 00:17:45;;;;;;;7.60;6.90;;;17.10;99.90;;;-141.84;61.11;20834.22;5051872;28;20229;-62
2022/09/05 00:20:45;;;;;;;7.28;6.65;;;17.10;99.90;;;-141.84;61.88;20781.38;5051313;28;20225;-62
2022/09/05 00:23:49;;;;;;;7.85;7.25;;;17.10;99.90;;;-141.84;61.37;20820.00;5051429;28;20221;-62
2022/09/05 00:26:55;;;;;;;7.22;6.63;;;17.10;99.90;;;-141.84;62.39;20779.31;5051374;28;20240;-61
2022/09/05 00:29:44;;;;;;;7.60;6.80;;;17.00;99.90;;;-141.84;62.80;20767.13;5051753;28;20224;-62
2022/09/05 00:32:59;;;;;;;7.70;7.00;;;17.00;99.90;;;-141.84;62.71;20781.38;5051426;28;20229;-62
2022/09/05 00:35:53;;;;;;;7.63;6.90;;;16.90;99.90;;;-141.84;62.46;20795.59;5051411;28;20294;-62
2022/09/05 00:38:26;;;;;;;7.50;6.68;;;16.90;99.90;;;-141.84;63.10;20712.25;5056020;28;20320;-63
2022/09/05 00:41:10;;;;;;;7.38;6.78;;;16.90;99.90;;;-141.84;62.70;20740.69;5071156;28;20307;-63
2022/09/05 00:43:44;;;;;;;7.63;6.93;;;16.90;99.90;;;-141.84;63.63;20722.41;5071049;28;20251;-62
2022/09/05 00:46:18;;;;;;;7.65;6.95;;;16.80;99.90;;;-141.84;64.15;20730.53;5071536;28;20296;-62
2022/09/05 00:48:58;;;;;;;7.35;6.68;;;16.80;99.90;;;-141.84;64.34;20718.34;5067234;28;20205;-62
2022/09/05 00:51:37;;;;;;;7.90;7.10;;;16.70;99.90;;;-141.84;64.28;20722.41;5050889;28;20225;-62
2022/09/05 00:55:02;;;;;;;7.40;6.70;;;16.70;99.90;;;-141.84;64.54;20700.03;5051644;28;20205;-62
2022/09/05 00:58:08;;;;;;;8.45;7.65;;;16.70;99.90;;;-141.84;63.88;20744.78;5028536;28;20480;-61
2022/09/05 01:00:51;;;;;;;7.60;7.00;;;16.70;99.90;;;-141.84;64.31;20691.91;5028500;28;20321;-61
2022/09/05 01:03:52;;;;;;;7.78;7.18;;;16.70;99.90;;;-141.84;64.12;20693.94;5049953;28;20601;-63
2022/09/05 01:06:37;;;;;;;7.78;7.10;;;16.70;99.90;;;-141.84;63.78;20734.59;5051121;28;20203;-62
2022/09/05 01:09:21;;;;;;;8.23;7.43;;;16.70;99.90;;;-141.84;64.55;20700.03;5051458;28;20209;-64
2022/09/05 01:12:09;;;;;;;7.97;7.22;;;16.60;99.90;;;-141.84;65.00;20685.81;5050561;28;20810;-62
2022/09/05 01:15:00;;;;;;;7.90;7.05;;;16.60;99.90;;;-141.84;65.35;20667.53;5051158;28;20415;-62
2022/09/05 01:17:51;;;;;;;8.57;7.22;;;16.60;99.90;;;-141.84;65.02;20659.38;5051063;28;20240;-62
2022/09/05 01:20:45;;;;;;;7.88;7.18;;;16.50;99.90;;;-141.84;65.77;20641.09;5050975;28;20594;-62
2022/09/05 01:23:48;;;;;;;8.48;7.78;;;16.50;99.90;;;-141.84;65.45;20655.31;5051507;28;20221;-62
2022/09/05 01:26:59;;;;;;;8.65;7.75;;;16.50;99.90;;;-141.84;65.23;20720.38;5050968;28;20235;-61
2022/09/05 01:29:43;;;;;;;7.22;6.63;;;16.40;99.90;;;-141.84;65.55;20657.34;5050789;28;20224;-62
2022/09/05 01:32:32;;;;;;;8.50;7.70;;;16.40;99.90;;;-141.84;66.05;20663.47;5050641;28;20237;-61
2022/09/05 01:35:35;;;;;;;7.95;7.15;;;16.40;99.90;;;-141.84;65.97;20639.06;5051240;28;20331;-62
2022/09/05 01:38:14;;;;;;;8.27;7.57;;;16.40;99.90;;;-141.84;66.26;20626.88;5052611;28;20733;-62
2022/09/05 01:40:53;;;;;;;8.70;8.00;;;16.30;99.90;;;-141.84;65.91;20596.38;5074887;28;20231;-61
2022/09/05 01:44:04;;;;;;;8.07;7.47;;;16.30;99.90;;;-141.84;65.84;20630.94;5074705;28;20224;-62
2022/09/05 01:46:44;;;;;;;8.25;7.55;;;16.30;99.90;;;-141.84;65.52;20659.38;5064141;28;20225;-62
2022/09/05 01:49:23;;;;;;;9.50;8.30;;;16.40;99.90;;;-141.84;65.96;20661.44;5054408;28;20703;-62
2022/09/05 01:52:25;;;;;;;8.50;7.80;;;16.30;99.90;;;-141.84;66.60;20630.94;5054441;28;20286;-62
2022/09/05 01:55:31;;;;;;;8.82;8.02;;;16.30;99.90;;;-141.84;67.02;20592.31;5054662;28;20196;-62
2022/09/05 01:58:13;;;;;;;8.23;7.53;;;16.20;99.90;;;-141.84;66.84;20596.38;5049238;28;20225;-61
2022/09/05 02:00:57;;;;;;;8.02;7.32;;;16.20;99.90;;;-141.84;66.97;20622.81;5054534;28;20185;-62
2022/09/05 02:04:01;;;;;;;8.02;7.32;;;16.10;99.90;;;-141.84;67.42;20578.09;5054343;28;20205;-61
2022/09/05 02:06:53;;;;;;;8.55;7.70;;;16.10;99.90;;;-141.84;67.29;20567.91;5054689;28;20185;-61
2022/09/05 02:09:56;;;;;;;7.75;7.05;;;16.10;99.90;;;-141.84;68.05;20541.50;5054633;28;20292;-63
2022/09/05 02:12:43;;;;;;;7.95;7.30;;;16.00;99.90;;;-141.84;68.27;20535.41;5053770;28;20263;-62
2022/09/05 02:15:44;;;;;;;9.98;8.30;;;16.00;99.90;;;-141.84;67.63;20565.88;5054428;28;20272;-62
2022/09/05 02:18:43;;;;;;;8.43;7.72;;;16.00;99.90;;;-141.84;68.29;20543.53;5054341;28;20300;-62
2022/09/05 02:21:27;;;;;;;7.97;7.28;;;15.90;99.90;;;-141.84;68.53;20529.28;5052789;28;20636;-62
2022/09/05 02:24:12;;;;;;;8.10;7.40;;;15.90;99.90;;;-141.84;68.00;20537.44;5053941;28;20232;-61
2022/09/05 02:27:07;;;;;;;8.13;7.32;;;15.90;99.90;;;-141.84;68.43;20500.84;5053854;28;20315;-62
2022/09/05 02:29:49;;;;;;;8.40;7.60;;;15.90;99.90;;;-141.84;68.68;20500.84;5053908;28;20264;-62
2022/09/05 02:32:24;;;;;;;8.43;7.47;;;15.90;99.90;;;-141.84;68.75;20496.78;5053886;28;20308;-61
2022/09/05 02:35:03;;;;;;;8.65;7.95;;;15.90;99.90;;;-141.84;68.91;20474.41;5053724;28;20319;-62
2022/09/05 02:37:42;;;;;;;8.15;7.38;;;15.80;99.90;;;-141.84;68.64;20492.72;5053649;28;20229;-62
2022/09/05 02:40:42;;;;;;;9.15;8.25;;;15.80;99.90;;;-141.84;68.58;20529.28;5033657;28;20229;-62
2022/09/05 02:43:41;;;;;;;7.95;7.25;;;15.80;99.90;;;-141.84;68.97;20480.50;5049252;28;20232;-64
2022/09/05 02:46:45;;;;;;;8.27;7.47;;;15.80;99.90;;;-141.84;68.94;20504.91;5053747;28;20641;-61
2022/09/05 02:49:25;;;;;;;8.88;8.13;;;15.80;99.90;;;-141.84;68.78;20492.72;5053072;28;20221;-63
2022/09/05 02:52:18;;;;;;;8.80;8.00;;;15.80;99.90;;;-141.84;68.59;20517.09;5052791;28;20229;-61
2022/09/05 02:55:30;;;;;;;8.40;7.70;;;15.80;99.90;;;-141.84;68.41;20496.78;5053581;28;20229;-61
2022/09/05 02:58:40;;;;;;;8.93;8.02;;;15.90;99.90;;;-141.84;69.00;20506.94;5052748;28;20217;-62
2022/09/05 03:01:54;;;;;;;8.40;7.70;;;15.80;99.90;;;-141.84;69.27;20476.44;5053389;28;20240;-62
2022/09/05 03:04:34;;;;;;;8.77;7.97;;;15.80;99.90;;;-141.84;69.18;20494.75;5053402;28;20229;-61
2022/09/05 03:07:18;;;;;;;8.55;7.85;;;15.80;99.90;;;-141.84;69.21;20470.34;5053005;28;20720;-61
2022/09/05 03:10:22;;;;;;;8.80;8.05;;;15.70;99.90;;;-141.84;69.92;20470.34;5053317;28;20272;-62
2022/09/05 03:13:49;;;;;;;9.13;8.35;;;15.70;99.90;;;-141.84;69.99;20439.84;5052553;28;20233;-62
2022/09/05 03:17:13;;;;;;;8.68;7.88;;;15.60;99.90;;;-141.84;70.11;20474.41;5053180;28;20606;-62
2022/09/05 03:20:39;;;;;;;8.75;7.85;;;15.60;99.90;;;-141.84;70.69;20450.03;5052659;28;20256;-61
2022/09/05 03:24:02;;;;;;;8.33;7.63;;;15.50;99.90;;;-141.84;70.85;20456.13;5039059;28;20316;-60
2022/09/05 03:27:09;;;;;;;9.43;8.53;;;15.50;99.90;;;-141.84;70.30;20443.91;5013903;28;20618;-62
2022/09/05 03:30:11;;;;;;;8.75;7.93;;;15.50;99.90;;;-141.84;70.06;20439.84;5052586;28;20225;-62
2022/09/05 03:33:29;;;;;;;8.25;7.53;;;15.50;99.90;;;-141.84;70.38;20421.56;5052524;28;20749;-62
2022/09/05 03:36:39;;;;;;;9.27;8.48;;;15.50;99.90;;;-141.84;70.20;20460.19;5052588;28;20237;-62
2022/09/05 03:40:09;;;;;;;9.15;8.35;;;15.50;99.90;;;-141.84;70.27;20409.38;5052339;28;20300;-63
2022/09/05 03:43:16;;;;;;;9.10;8.15;;;15.40;99.90;;;-141.84;70.32;20433.75;5050622;28;20320;-63
2022/09/05 03:46:11;;;;;;;9.43;8.57;;;15.40;99.90;;;-141.84;70.55;20395.13;5052205;28;20205;-62
2022/09/05 03:49:22;;;;;;;11.98;8.73;;;15.40;99.90;;;-141.84;71.17;20364.66;5052373;28;20328;-62
2022/09/05 03:52:26;;;;;;;10.77;8.70;;;15.30;99.90;;;-141.84;70.99;20387.00;5051822;28;20637;-63
2022/09/05 03:55:54;;;;;;;9.20;8.40;;;15.30;99.90;;;-141.84;71.22;20397.16;5052186;28;20231;-62
2022/09/05 03:59:05;;;;;;;8.90;8.02;;;15.30;99.90;;;-141.84;71.53;20384.97;5051591;28;20424;-62
2022/09/05 04:01:40;;;;;;;9.05;8.15;;;15.40;99.90;;;-141.84;71.59;20346.34;5051536;28;20221;-62
2022/09/05 04:04:37;;;;;;;9.30;8.40;;;15.20;99.90;;;-141.84;71.64;20374.81;5051843;28;20236;-61
2022/09/05 04:07:32;;;;;;;9.25;8.35;;;15.20;99.90;;;-141.84;71.69;20382.94;5052123;28;20597;-62
2022/09/05 04:10:36;;;;;;;9.82;8.82;;;15.10;99.90;;;-141.84;71.52;20358.56;5051695;28;20569;-63
2022/09/05 04:13:16;;;;;;;10.82;9.10;;;15.20;99.90;;;-141.84;71.55;20382.94;5051709;28;20596;-61
2022/09/05 04:16:00;;;;;;;9.52;8.50;;;15.10;99.90;;;-141.84;71.91;20354.47;5052185;28;20185;-62
2022/09/05 04:18:38;;;;;;;9.03;8.20;;;15.20;99.90;;;-141.84;71.32;20370.75;5052008;28;20232;-62
2022/09/05 04:21:14;;;;;;;9.53;7.97;;;15.10;99.90;;;-141.84;72.10;20305.69;5051943;28;20284;-62
2022/09/05 04:24:00;;;;;;;9.25;8.40;;;15.10;99.90;;;-141.84;72.29;20342.28;5051489;28;20228;-61
2022/09/05 04:27:00;;;;;;;9.17;8.27;;;15.10;99.90;;;-141.84;72.03;20330.09;5051898;28;20229;-61
2022/09/05 04:29:46;;;;;;;9.67;8.77;;;15.10;99.90;;;-141.84;72.25;20338.22;5051588;28;20221;-61
2022/09/05 04:32:33;;;;;;;8.98;8.07;;;15.00;99.90;;;-141.84;72.08;20332.13;5051623;28;20599;-62
2022/09/05 04:35:25;;;;;;;8.93;8.10;;;15.10;99.90;;;-141.84;72.21;20403.25;5051165;28;20216;-62
2022/09/05 04:38:04;;;;;;;9.33;8.47;;;15.10;99.90;;;-141.84;72.01;20281.31;5051894;28;20641;-64
2022/09/05 04:40:42;;;;;;;10.00;8.70;;;15.10;99.90;;;-141.84;71.81;20352.44;5071753;28;20303;-62
2022/09/05 04:43:24;;;;;;;9.80;8.80;;;15.10;99.90;;;-141.84;71.38;20326.03;5071234;28;20212;-61
2022/09/05 04:45:59;;;;;;;8.57;7.87;;;15.10;99.90;;;-141.84;71.41;20319.94;5071438;28;20191;-63
2022/09/05 04:48:38;;;;;;;9.53;8.60;;;15.10;99.90;;;-141.84;71.22;20332.13;5070200;28;20271;-62
2022/09/05 04:51:28;;;;;;;8.75;7.95;;;15.10;99.90;;;-141.84;71.43;20295.53;5051362;28;20205;-61
2022/09/05 04:54:25;;;;;;;9.98;8.98;;;15.20;99.90;;;-141.84;71.72;20313.84;5050971;28;20229;-61
2022/09/05 04:57:10;;;;;;;8.80;7.90;;;15.10;99.90;;;-141.84;71.22;20368.72;5050848;28;20288;-63
2022/09/05 04:59:52;;;;;;;9.07;8.13;;;15.10;99.90;;;-141.84;71.85;20315.88;5051729;28;20221;-63
2022/09/05 05:02:45;;;;;;;9.07;8.18;;;15.10;99.90;;;-141.84;71.53;20370.75;5051373;28;20229;-62
2022/09/05 05:05:54;;;;;;;9.47;8.57;;;15.10;99.90;;;-141.84;70.94;20356.50;5051122;28;20236;-62
2022/09/05 05:08:50;;;;;;;7.63;6.90;;;15.30;99.90;;;-141.84;70.97;20346.34;5051089;28;20236;-63
2022/09/05 05:11:44;;;;;;;8.90;8.00;;;15.20;99.90;;;-141.84;70.59;20364.66;5050826;28;20250;-62
2022/09/05 05:14:42;;;;;;;10.77;8.67;;;15.30;99.90;;;-141.84;70.71;20317.91;5053066;28;20697;-62
2022/09/05 05:17:38;;;;;;;9.20;8.30;;;15.30;99.90;;;-141.84;70.25;20350.41;5055009;28;20612;-61
2022/09/05 05:20:34;;;;;;;8.63;7.80;;;15.40;99.90;;;-141.84;70.38;20352.44;5054739;28;20236;-62
2022/09/05 05:23:16;;;;;;;8.15;7.35;;;15.50;99.90;;;-141.84;70.05;20411.41;5054899;28;20225;-62
2022/09/05 05:25:52;;;;;;;9.43;8.23;;;15.60;99.90;;;-141.84;68.60;20431.72;5054911;28;20235;-62
2022/09/05 05:28:31;;;;;;;8.68;7.85;;;15.70;99.90;;;-141.84;67.81;20478.47;5055015;28;20224;-62
2022/09/05 05:31:13;;;;;;;8.68;7.88;;;16.00;99.90;;;-141.84;67.02;20541.50;5054788;28;20224;-62
2022/09/05 05:33:48;;;;;;;8.32;7.55;;;16.10;99.90;;;-141.84;66.72;20525.22;5054713;28;20206;-62
2022/09/05 05:36:24;;;;;;;8.50;7.72;;;16.30;99.90;;;-141.84;66.64;20547.59;5055097;28;20188;-61
2022/09/05 05:39:03;;;;;;;8.27;7.47;;;16.50;99.90;;;-141.84;65.53;20578.09;5063220;28;20254;-61
2022/09/05 05:41:43;;;;;;;11.85;7.55;;;16.50;99.90;;;-141.84;65.21;20576.03;5069971;28;20311;-62
2022/09/05 05:44:15;;;;;;;8.60;7.70;;;16.80;99.90;;;-141.84;64.36;20594.34;5054682;28;20252;-62
2022/09/05 05:46:58;;;;;;;9.20;7.32;;;16.90;99.90;;;-141.84;64.58;20608.56;5054668;28;20232;-62
2022/09/05 05:49:48;;;;;;;7.90;7.15;;;16.90;99.90;;;-141.84;64.38;20639.06;5054552;28;20308;-62
2022/09/05 05:53:04;;;;;;;8.20;7.40;;;16.90;99.90;;;-141.84;64.57;20626.88;5054143;28;20312;-62
2022/09/05 05:56:03;;;;;;;8.23;7.30;;;17.00;99.90;;;-141.84;64.00;20667.53;5054482;28;20234;-62
2022/09/05 05:58:58;;;;;;;10.38;7.82;;;17.00;99.90;;;-141.84;64.24;20630.94;5054085;28;20571;-62
2022/09/05 06:02:25;;;;;;;8.95;7.45;;;17.10;99.90;;;-141.84;64.62;20616.69;5054180;28;20329;-62
2022/09/05 06:05:26;;;;;;;8.38;7.57;;;17.00;99.90;;;-141.84;64.08;20645.16;5054300;28;20221;-62
2022/09/05 06:08:36;;;;;;;8.23;7.43;;;17.10;99.90;;;-141.84;63.83;20649.22;5053913;28;20316;-62
2022/09/05 06:12:15;;;;;;;8.30;7.35;;;17.20;99.90;;;-141.84;63.10;20710.22;5054098;28;20228;-62
2022/09/05 06:15:49;;;;;;;8.15;7.45;;;17.30;99.90;;;-141.84;63.30;20742.75;5054533;28;20216;-63
2022/09/05 06:19:09;;;;;;;8.60;7.45;;;17.30;99.90;;;-141.84;63.21;20712.25;5053836;28;20244;-63
2022/09/05 06:22:18;;;;;;;9.13;7.18;;;17.40;99.90;;;-141.84;62.67;20734.59;5053647;28;20312;-62
2022/09/05 06:25:43;;;;;;;8.07;7.28;;;17.50;99.90;;;-141.84;63.39;20730.53;5053830;28;20266;-62
2022/09/05 06:28:24;;;;;;;8.30;7.50;;;17.50;99.90;;;-141.84;62.67;20797.63;5053451;28;20325;-62
2022/09/05 06:31:18;;;;;;;8.38;7.55;;;17.70;99.90;;;-141.84;63.00;20754.94;5051951;28;20300;-62
2022/09/05 06:34:21;;;;;;;8.45;7.60;;;17.70;99.90;;;-141.84;63.07;20771.19;5053628;28;20239;-61
2022/09/05 06:37:18;;;;;;;8.98;7.28;;;17.80;99.90;;;-141.84;62.77;20771.19;5053172;28;20231;-60
2022/09/05 06:40:08;;;;;;;9.77;8.30;;;17.80;99.90;;;-141.84;62.46;20777.28;5053586;28;20200;-62
2022/09/05 06:43:04;;;;;;;7.30;6.70;;;17.90;99.90;;;-141.84;62.78;20805.75;5053435;28;20243;-65
2022/09/05 06:46:21;;;;;;;9.07;8.18;;;17.90;99.90;;;-141.84;62.35;20807.78;5053694;28;20691;-64
2022/09/05 06:49:17;;;;;;;9.00;8.20;;;17.90;99.90;;;-141.84;62.34;20830.16;5051438;28;20697;-61
2022/09/05 06:53:05;;;;;;;7.75;6.95;;;18.00;99.90;;;-141.84;63.21;20773.22;5053150;28;20663;-61
2022/09/05 06:56:28;;;;;;;8.32;7.60;;;18.00;99.90;;;-141.84;62.24;20860.66;5022238;28;20233;-65
2022/09/05 06:59:59;;;;;;;10.30;8.52;;;18.10;99.90;;;-141.84;62.18;20878.94;5014319;28;20305;-65
2022/09/05 07:02:35;;;;;;;10.88;7.78;;;18.20;99.90;;;-141.84;61.77;20870.81;5022485;28;20234;-64
2022/09/05 07:05:38;;;;;;;9.32;8.38;;;18.30;99.90;;;-141.84;61.69;20862.69;5032827;28;20233;-64
2022/09/05 07:08:29;;;;;;;9.57;8.60;;;18.40;99.90;;;-141.84;61.69;20866.75;5032686;28;20313;-65
2022/09/05 07:11:10;;;;;;;9.32;8.43;;;18.40;99.90;;;-141.84;61.30;20939.94;5032784;28;20283;-62
2022/09/05 07:13:57;;;;;;;9.02;8.00;;;18.50;99.90;;;-141.84;61.39;20956.19;5035849;28;20688;-62
2022/09/05 07:16:46;;;;;;;8.82;8.02;;;18.60;99.90;;;-141.84;61.28;20956.19;5032508;28;20226;-60
2022/09/05 07:19:27;;;;;;;9.80;8.80;;;18.70;99.90;;;-141.84;60.86;20956.19;5040442;28;20599;-64
2022/09/05 07:22:17;;;;;;;9.70;8.80;;;18.70;99.90;;;-141.84;61.08;20915.53;5052275;28;20186;-64
2022/09/05 07:25:10;;;;;;;9.40;8.57;;;18.80;99.90;;;-141.84;60.75;21004.97;5051952;28;20221;-64
2022/09/05 07:27:55;;;;;;;9.23;8.32;;;18.90;99.90;;;-141.84;60.71;21000.91;5052189;28;20194;-65
2022/09/05 07:30:50;;;;;;;10.15;9.02;;;18.90;99.90;;;-141.84;60.46;20998.88;5032376;28;20242;-64
2022/09/05 07:33:21;;;;;;;10.43;9.43;;;19.00;99.90;;;-141.84;60.78;20988.72;5032681;28;20212;-62
2022/09/05 07:35:54;;;;;;;9.57;8.68;;;19.00;99.90;;;-141.84;60.33;21029.38;5031688;28;20693;-62
2022/09/05 07:38:28;;;;;;;10.60;8.38;;;19.00;99.90;;;-141.84;61.00;20988.72;5032287;28;20240;-62
2022/09/05 07:41:24;;;;;;;9.73;8.02;;;19.00;99.90;;;-141.84;60.44;21041.56;5031948;28;20226;-61
2022/09/05 07:43:59;;;;;;;9.35;8.55;;;19.20;99.90;;;-141.84;59.90;21070.03;5038777;28;20216;-62
2022/09/05 07:46:32;;;;;;;10.38;9.27;;;19.30;99.90;;;-141.84;60.07;21015.16;5050055;28;20237;-69
2022/09/05 07:49:06;;;;;;;9.30;8.30;;;19.40;99.90;;;-141.84;59.38;21100.53;5051790;28;20696;-66
2022/09/05 07:51:46;;;;;;;9.57;8.68;;;19.50;99.90;;;-141.84;58.94;21114.75;5052292;28;20201;-66
2022/09/05 07:54:41;;;;;;;10.02;9.07;;;19.70;99.90;;;-141.84;58.82;21118.84;5051535;28;20229;-63
2022/09/05 07:57:40;;;;;;;9.43;8.50;;;19.70;99.90;;;-141.84;58.99;21131.03;5051332;28;20602;-63
2022/09/05 08:00:22;;;;;;;9.90;9.00;;;19.80;99.90;;;-141.84;58.55;21143.22;5049949;28;20701;-62
2022/09/05 08:02:59;;;;;;;9.13;8.23;;;19.90;99.90;;;-141.84;58.57;21192.03;5051334;28;20233;-61
2022/09/05 08:05:42;;;;;;;9.00;8.20;;;20.00;99.90;;;-141.84;58.39;21261.16;5051207;28;20661;-66
2022/09/05 08:08:18;;;;;;;11.27;8.70;;;20.20;99.90;;;-141.84;57.62;21289.59;5051163;28;20320;-66
2022/09/05 08:10:51;;;;;;;9.27;8.48;;;20.40;99.90;;;-141.84;57.29;21285.53;5051450;28;20248;-65
2022/09/05 08:14:07;;;;;;;8.48;7.78;;;20.50;99.90;;;-141.84;56.89;21299.78;5051022;28;20229;-63
2022/09/05 08:16:55;;;;;;;9.98;9.07;;;20.60;99.90;;;-141.84;57.03;21326.22;5049362;28;20236;-65
2022/09/05 08:19:53;;;;;;;8.95;8.05;;;20.80;99.90;;;-141.84;56.38;21389.22;5050858;28;20224;-63
2022/09/05 08:22:30;;;;;;;8.82;7.93;;;20.90;99.90;;;-141.84;55.94;21436.00;5051156;28;20281;-61
2022/09/05 08:25:14;;;;;;;10.18;9.18;;;21.00;99.90;;;-141.84;55.42;21460.41;5051387;28;20236;-62
2022/09/05 08:28:05;;;;;;;9.77;8.98;;;21.10;99.90;;;-141.84;55.10;21429.91;5051093;28;20185;-63
2022/09/05 08:30:43;;;;;;;9.98;9.18;;;21.20;99.90;;;-141.84;55.21;21401.44;5051616;28;20598;-62
2022/09/05 08:33:20;;;;;;;10.15;8.80;;;21.20;99.90;;;-141.84;55.94;21375.00;5051261;28;20197;-64
2022/09/05 08:35:53;;;;;;;9.40;8.52;;;21.10;99.90;;;-141.84;55.68;21436.00;5050909;28;20227;-63
2022/09/05 08:38:33;;;;;;;9.40;8.60;;;21.20;99.90;;;-141.84;55.26;21444.13;5050922;28;20269;-60
2022/09/05 08:41:22;;;;;;;9.07;8.38;;;21.30;99.90;;;-141.84;55.87;21448.19;5051061;28;20228;-66
2022/09/05 08:44:19;;;;;;;9.52;8.63;;;21.20;99.90;;;-141.84;55.24;21494.97;5050805;28;20217;-66
2022/09/05 08:47:25;;;;;;;9.27;8.30;;;21.30;99.90;;;-141.84;55.58;21478.69;5051136;28;20235;-67
2022/09/05 08:50:28;;;;;;;9.80;8.88;;;21.30;99.90;;;-141.84;55.47;21486.81;5050766;28;20537;-64
2022/09/05 08:53:10;;;;;;;9.73;8.82;;;21.40;99.90;;;-141.84;55.06;21519.34;5050821;28;20608;-63
2022/09/05 08:56:09;;;;;;;9.05;8.05;;;21.50;99.90;;;-141.84;55.37;21509.19;5050807;28;20251;-62
2022/09/05 08:58:56;;;;;;;9.13;8.23;;;21.60;99.90;;;-141.84;54.97;21549.84;5050518;28;20225;-61
2022/09/05 09:02:05;;;;;;;9.45;8.60;;;21.70;99.90;;;-141.84;54.67;21562.06;5050950;28;20229;-62
2022/09/05 09:05:08;;;;;;;9.02;8.23;;;21.80;99.90;;;-141.84;54.29;21545.78;5050808;28;20225;-60
2022/09/05 09:07:52;;;;;;;9.55;8.68;;;21.90;99.90;;;-141.84;53.86;21643.38;5050748;28;20232;-62
2022/09/05 09:10:49;;;;;;;10.13;8.95;;;22.10;99.90;;;-141.84;53.62;21625.09;5050884;28;20279;-61
2022/09/05 09:13:36;;;;;;;10.20;9.05;;;22.20;99.90;;;-141.84;53.32;21625.09;5050574;28;20228;-60
2022/09/05 09:16:14;;;;;;;8.57;7.88;;;22.10;99.90;;;-141.84;54.08;21631.19;5050702;28;20225;-62
2022/09/05 09:19:08;;;;;;;8.55;7.85;;;22.20;99.90;;;-141.84;53.66;21649.50;5050396;28;20288;-60
2022/09/05 09:21:52;;;;;;;8.90;8.02;;;22.20;99.90;;;-141.84;53.33;21684.06;5051180;28;20289;-62
2022/09/05 09:24:38;;;;;;;9.73;8.82;;;22.30;99.90;;;-141.84;53.09;21710.50;5050417;28;20213;-62
2022/09/05 09:27:21;;;;;;;9.05;8.23;;;22.40;99.90;;;-141.84;52.98;21684.06;5051014;28;20380;-64
2022/09/05 09:30:12;;;;;;;10.02;9.05;;;22.50;99.90;;;-141.84;52.58;21779.63;5050232;28;20236;-64
2022/09/05 09:32:46;;;;;;;9.35;8.55;;;22.60;99.90;;;-141.84;52.36;21759.28;5050485;28;20229;-64
2022/09/05 09:35:22;;;;;;;8.98;8.10;;;22.60;99.90;;;-141.84;52.53;21773.53;5049960;28;20233;-65
2022/09/05 09:38:34;;;;;;;9.63;8.65;;;22.70;99.90;;;-141.84;52.26;21777.59;5050247;28;20233;-64
2022/09/05 09:41:38;;;;;;;8.68;7.88;;;22.70;99.90;;;-141.84;52.40;21779.63;5049961;28;20231;-62
2022/09/05 09:45:07;;;;;;;10.27;9.27;;;22.80;99.90;;;-141.84;52.37;21781.66;5050023;28;20224;-62
2022/09/05 09:48:55;;;;;;;9.48;8.63;;;22.80;99.90;;;-141.84;51.45;21869.09;5050211;28;20251;-64
2022/09/05 09:52:01;;;;;;;7.63;6.93;;;23.00;99.90;;;-141.84;51.61;21863.00;5050146;28;20205;-61
2022/09/05 09:55:22;;;;;;;9.38;8.50;;;23.10;99.90;;;-141.84;51.45;21863.00;5050688;28;20225;-60
2022/09/05 09:58:21;;;;;;;10.02;8.73;;;23.20;99.90;;;-141.84;51.23;21907.72;5039362;28;20226;-61
2022/09/05 10:01:01;;;;;;;10.40;9.32;;;23.30;99.90;;;-141.84;51.12;21895.53;5031046;28;20230;-62
2022/09/05 10:04:02;;;;;;;9.50;8.70;;;23.40;99.90;;;-141.84;50.90;21954.50;5034397;28;20281;-62
2022/09/05 10:07:41;;;;;;;9.20;8.27;;;23.40;99.90;;;-141.84;50.33;21958.56;5034147;28;20224;-61
2022/09/05 10:11:12;;;;;;;7.70;7.05;;;23.50;99.90;;;-141.84;50.40;21980.94;5034070;28;20586;-63
2022/09/05 10:14:45;;;;;;;9.30;8.55;;;23.60;99.90;;;-141.84;50.23;22054.13;5053477;28;20224;-63
2022/09/05 10:17:43;;;;;;;8.88;8.07;;;23.70;99.90;;;-141.84;49.95;22056.19;5053614;28;20260;-63
2022/09/05 10:20:38;;;;;;;8.60;7.93;;;23.90;99.90;;;-141.84;49.71;22054.13;5053765;28;20225;-63
2022/09/05 10:23:57;;;;;;;9.27;8.48;;;23.90;99.90;;;-141.84;49.47;22080.56;5053565;28;20259;-65
2022/09/05 10:27:11;;;;;;;8.90;8.10;;;24.00;99.90;;;-141.84;49.28;22084.66;5041072;28;20235;-63
2022/09/05 10:29:56;;;;;;;8.23;7.63;;;24.10;99.90;;;-141.84;49.12;22090.75;5033777;28;20226;-64
2022/09/05 10:32:36;;;;;;;8.93;8.23;;;24.10;99.90;;;-141.84;49.08;22133.44;5033890;28;20228;-64
2022/09/05 10:35:33;;;;;;;9.30;8.50;;;24.10;99.90;;;-141.84;48.79;22125.31;5033782;28;20222;-64
2022/09/05 10:38:14;;;;;;;8.70;7.90;;;24.20;99.90;;;-141.84;48.61;22119.22;5047330;28;20755;-63
2022/09/05 10:40:49;;;;;;;9.40;8.25;;;24.20;99.90;;;-141.84;48.71;22113.13;5033483;28;20247;-64
2022/09/05 10:43:50;;;;;;;8.63;7.57;;;24.20;99.90;;;-141.84;48.48;22159.88;5033612;28;20238;-64
2022/09/05 10:46:32;;;;;;;8.30;7.53;;;24.20;99.90;;;-141.84;48.07;22176.16;5033584;28;20243;-64
2022/09/05 10:49:26;;;;;;;8.13;7.35;;;24.30;99.90;;;-141.84;48.20;22137.50;5033784;28;20230;-64
2022/09/05 10:52:10;;;;;;;8.45;7.65;;;24.30;99.90;;;-141.84;47.55;22188.34;5033167;28;20252;-63
2022/09/05 10:55:20;;;;;;;7.90;7.18;;;24.40;99.90;;;-141.84;47.96;22224.97;5033459;28;20194;-64
2022/09/05 10:58:13;;;;;;;8.38;7.55;;;24.50;99.90;;;-141.84;47.69;22224.97;5043723;28;20217;-65
2022/09/05 11:01:08;;;;;;;7.93;7.18;;;24.40;99.90;;;-141.84;46.36;22275.81;5053811;28;20201;-64
2022/09/05 11:04:13;;;;;;;8.35;7.65;;;24.60;99.90;;;-141.84;46.72;22290.03;5053194;28;20229;-64
2022/09/05 11:06:54;;;;;;;10.32;7.20;;;24.70;99.90;;;-141.84;47.09;22298.16;5033929;28;20645;-62
2022/09/05 11:09:46;;;;;;;7.90;7.30;;;24.70;99.90;;;-141.84;46.41;22310.38;5042635;28;20697;-64
2022/09/05 11:12:40;;;;;;;7.90;6.60;;;24.70;99.90;;;-141.84;46.20;22340.88;5031991;28;20225;-64
2022/09/05 11:15:28;;;;;;;7.45;6.68;;;24.80;99.90;;;-141.84;46.06;22357.16;5048158;28;20744;-64
2022/09/05 11:18:03;;;;;;;7.43;6.68;;;24.90;99.90;;;-141.84;46.07;22385.63;5052594;28;20249;-65
2022/09/05 11:20:52;;;;;;;6.60;6.00;;;25.00;99.90;;;-141.84;46.32;22355.13;5052342;28;20225;-64
2022/09/05 11:23:30;;;;;;;7.30;6.55;;;25.00;99.90;;;-141.84;45.58;22405.97;5052665;28;20225;-65
2022/09/05 11:26:06;;;;;;;6.70;6.20;;;25.10;99.90;;;-141.84;45.51;22401.88;5052524;28;20325;-66
2022/09/05 11:28:46;;;;;;;6.70;6.10;;;25.10;99.90;;;-141.84;45.64;22373.41;5052330;28;20757;-65
2022/09/05 11:31:40;;;;;;;6.47;5.97;;;25.10;99.90;;;-141.84;45.80;22412.06;5052289;28;20229;-63
2022/09/05 11:34:59;;;;;;;6.22;5.72;;;25.20;99.90;;;-141.84;45.59;22414.09;5052086;28;20241;-62
2022/09/05 11:38:35;;;;;;;7.70;5.82;;;25.20;99.90;;;-141.84;44.93;22448.66;5052071;28;20233;-65
2022/09/05 11:42:20;;;;;;;6.22;5.72;;;25.30;99.90;;;-141.84;44.63;22477.13;5023212;28;20226;-65
2022/09/05 11:45:38;;;;;;;6.30;5.68;;;25.30;99.90;;;-141.84;45.07;22440.53;5032221;28;20282;-63
2022/09/05 11:49:00;;;;;;;6.80;6.20;;;25.30;99.90;;;-141.84;45.09;22452.72;5032459;28;20372;-64
2022/09/05 11:52:16;;;;;;;5.95;5.55;;;25.40;99.90;;;-141.84;44.32;22458.84;5030555;28;20759;-65
2022/09/05 11:55:21;;;;;;;7.00;5.90;;;25.40;99.90;;;-141.84;44.59;22483.25;5030358;28;20232;-64
2022/09/05 11:58:19;;;;;;;6.85;6.18;;;25.40;99.90;;;-141.84;44.32;22505.59;5040566;28;20193;-65